createdAt,value
2018-07-11T00:02:49.838Z,16.00
2018-07-11T00:05:47.440Z,15.90
2018-07-11T00:08:44.658Z,16.87
2018-07-11T00:11:42.441Z,19.03
2018-07-11T00:14:40.210Z,19.40
2018-07-11T00:17:38.273Z,17.40
2018-07-11T00:20:36.363Z,18.70
2018-07-11T00:23:34.434Z,18.77
2018-07-11T00:26:31.886Z,18.30
2018-07-11T00:29:28.953Z,19.10
2018-07-11T00:32:26.194Z,19.50
2018-07-11T00:35:24.466Z,21.37
2018-07-11T00:38:21.641Z,20.07
2018-07-11T00:41:18.885Z,22.23
2018-07-11T00:44:16.587Z,21.20
2018-07-11T00:47:15.191Z,22.47
2018-07-11T00:50:12.662Z,22.27
2018-07-11T00:53:10.070Z,23.30
2018-07-11T00:56:09.570Z,24.27
2018-07-11T00:59:13.953Z,23.77
2018-07-11T01:02:14.230Z,25.20
2018-07-11T01:05:12.153Z,23.73
2018-07-11T01:08:09.769Z,23.17
2018-07-11T01:11:07.954Z,24.63
2018-07-11T01:14:05.378Z,24.47
2018-07-11T01:17:02.510Z,25.47
2018-07-11T01:20:00.860Z,29.27
2018-07-11T01:22:58.803Z,25.07
2018-07-11T01:25:56.183Z,28.33
2018-07-11T01:28:53.822Z,26.67
2018-07-11T01:31:51.655Z,25.40
2018-07-11T01:34:49.627Z,25.70
2018-07-11T01:37:46.754Z,25.83
2018-07-11T01:40:44.800Z,24.27
2018-07-11T01:43:42.815Z,26.07
2018-07-11T01:46:42.226Z,23.70
2018-07-11T01:49:39.718Z,21.53
2018-07-11T01:52:49.206Z,22.63
2018-07-11T01:55:46.358Z,21.67
2018-07-11T01:58:43.552Z,22.70
2018-07-11T02:01:41.587Z,23.63
2018-07-11T02:04:39.027Z,22.30
2018-07-11T02:07:37.212Z,22.70
2018-07-11T02:10:34.713Z,20.10
2018-07-11T02:13:32.279Z,21.37
2018-07-11T02:16:30.111Z,23.77
2018-07-11T02:19:29.878Z,21.90
2018-07-11T02:22:27.126Z,20.30
2018-07-11T02:25:24.562Z,18.87
2018-07-11T02:28:22.018Z,16.07
2018-07-11T02:31:19.399Z,15.33
2018-07-11T02:34:16.466Z,15.93
2018-07-11T02:37:13.579Z,15.53
2018-07-11T02:40:10.857Z,14.57
2018-07-11T02:43:08.238Z,15.80
2018-07-11T02:46:05.825Z,16.43
2018-07-11T02:49:03.941Z,16.37
2018-07-11T02:52:01.447Z,19.07
2018-07-11T02:54:58.878Z,16.93
2018-07-11T02:57:56.590Z,16.63
2018-07-11T03:00:54.692Z,20.30
2018-07-11T03:03:52.827Z,21.67
2018-07-11T03:06:49.919Z,20.33
2018-07-11T03:09:47.046Z,23.47
2018-07-11T03:12:44.050Z,18.90
2018-07-11T03:15:41.675Z,18.53
2018-07-11T03:18:38.771Z,18.83
2018-07-11T03:21:35.895Z,17.90
2018-07-11T03:24:33.115Z,18.17
2018-07-11T03:27:30.200Z,18.97
2018-07-11T03:30:27.248Z,17.20
2018-07-11T03:33:24.417Z,17.30
2018-07-11T03:36:21.626Z,17.77
2018-07-11T03:39:19.796Z,17.83
2018-07-11T03:42:17.044Z,18.20
2018-07-11T03:45:14.341Z,19.50
2018-07-11T03:48:11.468Z,20.00
2018-07-11T03:51:08.663Z,17.00
2018-07-11T03:54:06.156Z,19.17
2018-07-11T03:57:03.354Z,17.53
2018-07-11T04:00:01.462Z,16.53
2018-07-11T04:02:58.937Z,17.17
2018-07-11T04:05:56.225Z,15.63
2018-07-11T04:08:54.414Z,16.20
2018-07-11T04:11:52.595Z,15.43
2018-07-11T04:14:49.690Z,15.27
2018-07-11T04:17:47.539Z,17.03
2018-07-11T04:20:45.182Z,16.10
2018-07-11T04:23:43.088Z,17.50
2018-07-11T04:26:40.287Z,15.50
2018-07-11T04:29:37.448Z,16.13
2018-07-11T04:32:34.648Z,14.23
2018-07-11T04:35:32.017Z,15.73
2018-07-11T04:38:29.432Z,14.20
2018-07-11T04:41:27.559Z,14.47
2018-07-11T04:44:25.821Z,14.20
2018-07-11T04:47:22.999Z,13.97
2018-07-11T04:50:20.139Z,13.67
2018-07-11T04:53:20.143Z,13.20
2018-07-11T04:56:24.754Z,13.07
2018-07-11T04:59:22.341Z,14.53
2018-07-11T05:02:20.335Z,13.90
2018-07-11T05:05:17.855Z,13.40
2018-07-11T05:08:15.336Z,12.80
2018-07-11T05:11:12.852Z,13.87
2018-07-11T05:14:10.652Z,14.23
2018-07-11T05:17:08.314Z,13.90
2018-07-11T05:20:05.759Z,13.73
2018-07-11T05:23:03.346Z,13.50
2018-07-11T05:26:00.414Z,14.40
2018-07-11T05:28:57.687Z,13.67
2018-07-11T05:31:55.135Z,14.17
2018-07-11T05:34:52.583Z,14.00
2018-07-11T05:37:50.055Z,14.67
2018-07-11T05:40:47.589Z,13.57
2018-07-11T05:43:44.861Z,14.50
2018-07-11T05:46:42.215Z,14.90
2018-07-11T05:49:39.702Z,12.20
2018-07-11T05:52:37.331Z,12.93
2018-07-11T05:55:34.830Z,12.47
2018-07-11T05:58:32.043Z,13.00
2018-07-11T06:01:30.039Z,11.73
2018-07-11T06:04:27.295Z,11.80
2018-07-11T06:07:24.547Z,11.27
2018-07-11T06:10:21.819Z,12.43
2018-07-11T06:13:18.871Z,12.70
2018-07-11T06:16:16.151Z,12.60
2018-07-11T06:19:14.088Z,12.50
2018-07-11T06:22:11.386Z,11.37
2018-07-11T06:25:08.585Z,12.43
2018-07-11T06:28:05.714Z,11.40
2018-07-11T06:31:03.896Z,12.37
2018-07-11T06:34:01.906Z,11.87
2018-07-11T06:37:00.184Z,11.83
2018-07-11T06:39:58.381Z,11.83
2018-07-11T06:42:56.415Z,13.53
2018-07-11T06:45:54.198Z,11.40
2018-07-11T06:48:52.422Z,12.67
2018-07-11T06:51:50.077Z,11.80
2018-07-11T06:54:47.961Z,12.10
2018-07-11T06:57:45.149Z,11.27
2018-07-11T07:00:42.497Z,11.60
2018-07-11T07:03:39.884Z,12.13
2018-07-11T07:06:37.203Z,11.97
2018-07-11T07:09:34.402Z,11.33
2018-07-11T07:12:31.899Z,13.37
2018-07-11T07:15:29.309Z,11.23
2018-07-11T07:18:27.402Z,11.63
2018-07-11T07:21:24.826Z,12.53
2018-07-11T07:24:22.035Z,11.53
2018-07-11T07:27:19.418Z,11.87
2018-07-11T07:30:16.618Z,12.00
2018-07-11T07:33:13.930Z,11.03
2018-07-11T07:36:11.101Z,11.80
2018-07-11T07:39:08.091Z,11.07
2018-07-11T07:42:06.379Z,10.90
2018-07-11T07:45:04.398Z,11.63
2018-07-11T07:48:02.400Z,13.27
2018-07-11T07:50:59.639Z,11.03
2018-07-11T07:53:57.969Z,11.73
2018-07-11T07:56:55.950Z,10.80
2018-07-11T07:59:53.890Z,11.03
2018-07-11T08:02:51.211Z,11.17
2018-07-11T08:05:48.371Z,11.10
2018-07-11T08:08:45.734Z,12.07
2018-07-11T08:11:42.943Z,11.93
2018-07-11T08:14:40.539Z,12.83
2018-07-11T08:17:37.834Z,11.03
2018-07-11T08:20:34.939Z,10.37
2018-07-11T08:23:49.421Z,10.63
2018-07-11T08:26:58.660Z,10.83
2018-07-11T08:30:31.143Z,12.03
2018-07-11T08:33:40.633Z,10.53
2018-07-11T08:37:49.646Z,10.80
2018-07-11T08:43:04.398Z,10.03
2018-07-11T08:46:07.817Z,10.57
2018-07-11T08:51:24.234Z,10.27
2018-07-11T08:54:29.718Z,10.60
2018-07-11T09:07:33.045Z,10.97
2018-07-11T09:14:47.950Z,14.00
2018-07-11T09:18:25.962Z,16.37
2018-07-11T09:21:39.334Z,15.70
2018-07-11T09:25:09.019Z,14.60
2018-07-11T09:28:06.540Z,16.47
2018-07-11T09:31:04.126Z,16.67
2018-07-11T09:34:01.600Z,15.53
2018-07-11T09:36:59.471Z,16.50
2018-07-11T09:39:57.106Z,16.20
2018-07-11T09:42:55.210Z,17.07
2018-07-11T09:45:52.513Z,17.77
2018-07-11T09:48:49.578Z,17.83
2018-07-11T09:51:46.983Z,17.00
2018-07-11T09:54:44.001Z,17.57
2018-07-11T09:57:41.964Z,18.70
2018-07-11T10:00:45.219Z,17.17
2018-07-11T10:03:43.295Z,18.87
2018-07-11T10:06:40.535Z,17.70
2018-07-11T10:09:38.554Z,17.97
2018-07-11T10:12:36.591Z,18.70
2018-07-11T10:15:34.471Z,17.93
2018-07-11T10:18:32.042Z,19.53
2018-07-11T10:21:29.849Z,19.97
2018-07-11T10:24:27.326Z,21.37
2018-07-11T10:27:24.923Z,21.73
2018-07-11T10:30:22.023Z,20.23
2018-07-11T10:33:20.270Z,19.43
2018-07-11T10:36:17.522Z,18.80
2018-07-11T10:39:14.959Z,18.93
2018-07-11T10:42:13.028Z,18.80
2018-07-11T10:45:10.151Z,17.13
2018-07-11T10:48:07.240Z,17.73
2018-07-11T10:51:04.699Z,16.13
2018-07-11T10:54:01.895Z,16.83
2018-07-11T10:56:59.347Z,16.87
2018-07-11T10:59:56.843Z,16.77
2018-07-11T11:02:54.489Z,15.70
2018-07-11T11:05:51.730Z,16.53
2018-07-11T11:08:48.918Z,17.17
2018-07-11T11:11:46.131Z,16.87
2018-07-11T11:14:43.647Z,17.90
2018-07-11T11:17:40.702Z,18.00
2018-07-11T11:20:38.735Z,19.07
2018-07-11T11:23:36.566Z,17.57
2018-07-11T11:26:34.747Z,16.73
2018-07-11T11:29:32.536Z,16.27
2018-07-11T11:32:30.716Z,16.93
2018-07-11T11:35:28.395Z,19.13
2018-07-11T11:38:25.574Z,16.43
2018-07-11T11:41:23.786Z,15.93
2018-07-11T11:44:22.830Z,16.90
2018-07-11T11:47:20.406Z,14.77
2018-07-11T11:50:18.041Z,14.70
2018-07-11T11:53:16.207Z,17.00
2018-07-11T11:56:14.184Z,16.90
2018-07-11T11:59:12.003Z,20.10
2018-07-11T12:02:09.045Z,17.00
2018-07-11T12:05:06.418Z,15.67
2018-07-11T12:08:03.554Z,15.77
2018-07-11T12:11:00.830Z,15.43
2018-07-11T12:13:58.126Z,14.50
2018-07-11T12:16:55.870Z,15.17
2018-07-11T12:19:54.393Z,15.20
2018-07-11T12:22:51.816Z,13.47
2018-07-11T12:25:49.662Z,13.37
2018-07-11T12:28:46.798Z,13.30
2018-07-11T12:31:44.546Z,13.50
2018-07-11T12:34:42.235Z,13.97
2018-07-11T12:37:39.915Z,13.07
2018-07-11T12:40:37.632Z,12.07
2018-07-11T12:43:35.197Z,12.27
2018-07-11T12:46:32.811Z,11.57
2018-07-11T12:49:30.250Z,12.40
2018-07-11T12:52:27.661Z,11.90
2018-07-11T12:55:24.895Z,11.57
2018-07-11T12:58:22.021Z,12.90
2018-07-11T13:01:19.270Z,10.93
2018-07-11T13:04:16.647Z,11.20
2018-07-11T13:07:13.682Z,11.20
2018-07-11T13:10:12.847Z,12.13
2018-07-11T13:13:10.382Z,10.93
2018-07-11T13:16:07.566Z,11.37
2018-07-11T13:19:04.695Z,12.13
2018-07-11T13:22:01.848Z,13.23
2018-07-11T13:24:59.815Z,10.70
2018-07-11T13:27:58.090Z,12.67
2018-07-11T13:30:55.660Z,12.40
2018-07-11T13:33:53.819Z,12.53
2018-07-11T13:36:51.064Z,12.10
2018-07-11T13:39:48.463Z,11.90
2018-07-11T13:42:45.503Z,12.40
2018-07-11T13:45:43.662Z,11.57
2018-07-11T13:48:40.970Z,12.00
2018-07-11T13:51:39.066Z,11.27
2018-07-11T13:54:37.090Z,11.07
2018-07-11T13:57:35.081Z,11.63
2018-07-11T14:00:33.158Z,11.50
2018-07-11T14:03:30.521Z,10.20
2018-07-11T14:06:28.502Z,11.13
2018-07-11T14:09:25.847Z,10.33
2018-07-11T14:12:22.898Z,10.97
2018-07-11T14:15:20.894Z,11.17
2018-07-11T14:18:18.884Z,11.67
2018-07-11T14:21:16.087Z,10.70
2018-07-11T14:24:13.546Z,11.47
2018-07-11T14:27:12.456Z,10.57
2018-07-11T14:30:09.450Z,11.90
2018-07-11T14:33:09.610Z,11.33
2018-07-11T14:36:07.091Z,12.23
2018-07-11T14:39:05.279Z,13.87
2018-07-11T14:42:02.419Z,15.00
2018-07-11T14:45:00.107Z,14.93
2018-07-11T14:48:03.615Z,15.10
2018-07-11T14:51:01.561Z,14.40
2018-07-11T14:54:00.182Z,15.87
2018-07-11T14:56:58.349Z,16.10
2018-07-11T14:59:55.531Z,17.27
2018-07-11T15:02:53.484Z,16.00
2018-07-11T15:05:51.414Z,14.87
2018-07-11T15:08:49.344Z,16.50
2018-07-11T15:11:46.822Z,15.17
2018-07-11T15:14:44.878Z,15.90
2018-07-11T15:17:43.944Z,15.03
2018-07-11T15:20:41.874Z,15.27
2018-07-11T15:23:40.064Z,14.37
2018-07-11T15:26:38.278Z,14.27
2018-07-11T15:29:35.434Z,15.47
2018-07-11T15:32:33.502Z,13.77
2018-07-11T15:35:30.672Z,13.80
2018-07-11T15:38:28.628Z,14.93
2018-07-11T15:41:26.736Z,15.33
2018-07-11T15:44:23.788Z,15.67
2018-07-11T15:47:21.022Z,14.87
2018-07-11T15:50:19.107Z,13.77
2018-07-11T15:53:17.174Z,13.13
2018-07-11T15:56:14.535Z,13.23
2018-07-11T15:59:18.619Z,13.37
2018-07-11T16:02:15.747Z,12.97
2018-07-11T16:05:13.660Z,12.67
2018-07-11T16:08:13.130Z,12.83
2018-07-11T16:11:11.844Z,12.20
2018-07-11T16:14:09.832Z,12.50
2018-07-11T16:17:07.715Z,10.83
2018-07-11T16:20:05.818Z,11.40
2018-07-11T16:23:03.563Z,11.23
2018-07-11T16:26:00.830Z,10.30
2018-07-11T16:28:58.230Z,10.50
2018-07-11T16:31:55.641Z,10.63
2018-07-11T16:34:52.791Z,10.80
2018-07-11T16:37:50.206Z,10.80
2018-07-11T16:40:48.308Z,11.13
2018-07-11T16:43:45.628Z,10.10
2018-07-11T16:46:42.940Z,10.87
2018-07-11T16:49:40.249Z,10.23
2018-07-11T16:52:37.559Z,9.90
2018-07-11T16:55:35.804Z,11.13
2018-07-11T16:58:39.186Z,11.30
2018-07-11T17:01:39.580Z,11.27
2018-07-11T17:04:38.916Z,11.70
2018-07-11T17:07:38.190Z,12.50
2018-07-11T17:10:35.420Z,11.97
2018-07-11T17:13:35.434Z,11.83
2018-07-11T17:16:33.042Z,11.77
2018-07-11T17:19:43.700Z,11.43
2018-07-11T17:22:43.341Z,12.37
2018-07-11T17:25:43.709Z,12.30
2018-07-11T17:28:41.219Z,11.80
2018-07-11T17:31:39.333Z,13.03
2018-07-11T17:34:36.695Z,12.13
2018-07-11T17:37:34.750Z,13.03
2018-07-11T17:40:34.810Z,19.27
2018-07-11T17:43:34.150Z,18.33
2018-07-11T17:46:32.268Z,16.17
2018-07-11T17:49:34.810Z,13.47
2018-07-11T17:52:31.971Z,14.20
2018-07-11T17:55:35.380Z,13.53
2018-07-11T17:58:34.390Z,12.57
2018-07-11T18:01:31.774Z,12.07
2018-07-11T18:04:37.520Z,12.40
2018-07-11T18:07:38.503Z,11.40
2018-07-11T18:10:45.800Z,13.00
2018-07-11T18:14:12.327Z,13.70
2018-07-11T18:17:26.139Z,12.80
2018-07-11T18:20:52.418Z,14.10
2018-07-11T18:24:00.666Z,14.87
2018-07-11T18:27:06.267Z,17.80
2018-07-11T18:30:11.471Z,16.47
2018-07-11T18:33:21.798Z,13.43
2018-07-11T18:37:00.857Z,15.00
2018-07-11T18:41:20.385Z,19.80
2018-07-11T18:44:30.653Z,17.60
2018-07-11T18:47:43.020Z,19.70
2018-07-11T18:50:55.179Z,19.83
2018-07-11T18:54:19.802Z,21.00
2018-07-11T18:57:28.114Z,20.17
2018-07-11T19:00:38.298Z,20.50
2018-07-11T19:04:45.173Z,22.47
2018-07-11T19:08:13.312Z,21.37
2018-07-11T19:12:51.379Z,24.80
2018-07-11T19:16:08.886Z,22.53
2018-07-11T19:19:09.985Z,21.07
2018-07-11T19:22:15.671Z,23.23
2018-07-11T19:27:25.307Z,25.53
2018-07-11T19:30:26.226Z,23.63
2018-07-11T19:33:36.238Z,24.00
2018-07-11T19:37:12.401Z,23.37
2018-07-11T19:40:26.823Z,22.17
2018-07-11T19:44:01.234Z,30.10
2018-07-11T19:48:14.091Z,24.13
2018-07-11T19:51:25.728Z,25.10
2018-07-11T19:54:30.724Z,22.93
2018-07-11T19:57:28.270Z,24.43
2018-07-11T20:00:25.502Z,25.23
2018-07-11T20:03:22.829Z,24.90
2018-07-11T20:06:20.277Z,25.43
2018-07-11T20:09:18.478Z,26.37
2018-07-11T20:12:15.644Z,24.70
2018-07-11T20:15:13.062Z,25.33
2018-07-11T20:18:11.151Z,24.57
2018-07-11T20:21:08.711Z,24.00
2018-07-11T20:24:06.000Z,24.60
2018-07-11T20:27:03.111Z,24.27
2018-07-11T20:30:00.808Z,23.40
2018-07-11T20:32:58.145Z,24.00
2018-07-11T20:35:56.025Z,24.20
2018-07-11T20:38:53.675Z,22.73
2018-07-11T20:41:51.651Z,23.57
2018-07-11T20:44:48.810Z,23.83
2018-07-11T20:47:47.935Z,24.83
2018-07-11T20:50:45.015Z,26.23
2018-07-11T20:53:42.136Z,24.67
2018-07-11T20:56:39.467Z,24.23
2018-07-11T20:59:48.720Z,23.87
2018-07-11T21:03:59.078Z,23.83
2018-07-11T21:07:17.639Z,24.17
2018-07-11T21:10:36.082Z,24.80
2018-07-11T21:14:23.949Z,25.53
2018-07-11T21:17:34.643Z,26.17
2018-07-11T21:20:32.563Z,25.30
2018-07-11T21:23:30.233Z,26.03
2018-07-11T21:26:28.700Z,27.07
2018-07-11T21:29:27.201Z,29.17
2018-07-11T21:32:24.850Z,26.37
2018-07-11T21:35:22.399Z,22.57
2018-07-11T21:38:20.240Z,26.93
2018-07-11T21:41:17.808Z,27.40
2018-07-11T21:44:14.990Z,27.07
2018-07-11T21:47:12.585Z,27.43
2018-07-11T21:50:10.610Z,26.07
2018-07-11T21:53:08.150Z,24.20
2018-07-11T21:56:05.216Z,24.90
2018-07-11T21:59:02.596Z,24.80
2018-07-11T22:02:00.664Z,23.43
2018-07-11T22:04:58.146Z,22.63
2018-07-11T22:07:55.519Z,20.80
2018-07-11T22:10:53.406Z,22.70
2018-07-11T22:13:51.548Z,20.80
2018-07-11T22:16:48.843Z,20.77
2018-07-11T22:19:50.432Z,20.30
2018-07-11T22:22:47.862Z,21.57
2018-07-11T22:25:45.759Z,19.50
2018-07-11T22:28:42.893Z,19.60
2018-07-11T22:31:40.442Z,20.17
2018-07-11T22:34:38.325Z,19.00
2018-07-11T22:37:36.070Z,18.93
2018-07-11T22:40:33.263Z,19.27
2018-07-11T22:43:31.131Z,19.57
2018-07-11T22:46:28.092Z,19.17
2018-07-11T22:49:26.169Z,18.43
2018-07-11T22:52:23.607Z,16.47
2018-07-11T22:55:21.561Z,17.27
2018-07-11T22:58:18.985Z,17.23
2018-07-11T23:01:16.264Z,17.97
2018-07-11T23:04:13.787Z,18.47
2018-07-11T23:07:11.642Z,18.43
2018-07-11T23:10:08.987Z,17.90
2018-07-11T23:13:05.878Z,17.23
2018-07-11T23:16:03.266Z,19.23
2018-07-11T23:19:09.721Z,19.83
2018-07-11T23:22:06.987Z,19.50
2018-07-11T23:25:04.742Z,20.80
2018-07-11T23:28:01.759Z,19.57
2018-07-11T23:30:59.653Z,20.43
2018-07-11T23:33:56.621Z,19.70
2018-07-11T23:36:53.755Z,19.87
2018-07-11T23:39:51.172Z,20.87
2018-07-11T23:42:48.370Z,21.63
2018-07-11T23:45:45.598Z,22.97
2018-07-11T23:48:42.674Z,22.63
2018-07-11T23:51:40.043Z,22.27
2018-07-11T23:54:37.886Z,23.03
2018-07-11T23:57:35.403Z,22.50
